createdAt,value
2019-06-01T00:02:21.258Z,100.00
2019-06-01T00:04:54.957Z,100.00
2019-06-01T00:07:27.628Z,100.00
2019-06-01T00:10:00.309Z,100.00
2019-06-01T00:12:32.996Z,100.00
2019-06-01T00:15:07.688Z,100.00
2019-06-01T00:17:40.293Z,100.00
2019-06-01T00:20:13.073Z,100.00
2019-06-01T00:22:47.420Z,100.00
2019-06-01T00:25:20.282Z,100.00
2019-06-01T00:27:52.963Z,100.00
2019-06-01T00:30:27.315Z,100.00
2019-06-01T00:32:59.335Z,100.00
2019-06-01T00:35:32.435Z,100.00
2019-06-01T00:38:05.514Z,100.00
2019-06-01T00:40:38.508Z,100.00
2019-06-01T00:43:11.177Z,100.00
2019-06-01T00:45:44.541Z,100.00
2019-06-01T00:48:17.154Z,100.00
2019-06-01T00:50:51.002Z,100.00
2019-06-01T00:53:23.958Z,100.00
2019-06-01T00:55:56.234Z,100.00
2019-06-01T00:58:28.900Z,100.00
2019-06-01T01:01:01.578Z,100.00
2019-06-01T01:03:34.248Z,100.00
2019-06-01T01:06:06.928Z,100.00
2019-06-01T01:08:39.616Z,100.00
2019-06-01T01:11:12.301Z,100.00
2019-06-01T01:13:45.659Z,100.00
2019-06-01T01:19:10.699Z,100.00
2019-06-01T01:21:43.693Z,100.00
2019-06-01T01:24:16.380Z,100.00
2019-06-01T01:26:49.056Z,100.00
2019-06-01T01:29:21.630Z,100.00
2019-06-01T01:31:55.640Z,100.00
2019-06-01T01:34:28.361Z,100.00
2019-06-01T01:37:00.995Z,100.00
2019-06-01T01:39:41.130Z,100.00
2019-06-01T01:42:15.273Z,100.00
2019-06-01T01:44:48.445Z,100.00
2019-06-01T01:47:21.049Z,100.00
2019-06-01T01:49:54.100Z,100.00
2019-06-01T01:52:26.804Z,100.00
2019-06-01T01:54:59.587Z,100.00
2019-06-01T01:57:32.564Z,100.00
2019-06-01T02:00:11.810Z,100.00
2019-06-01T02:02:45.005Z,100.00
2019-06-01T02:05:18.281Z,100.00
2019-06-01T02:07:52.787Z,100.00
2019-06-01T02:10:25.612Z,100.00
2019-06-01T02:12:59.384Z,100.00
2019-06-01T02:15:32.487Z,100.00
2019-06-01T02:18:06.191Z,100.00
2019-06-01T02:20:38.977Z,100.00
2019-06-01T02:23:12.260Z,100.00
2019-06-01T02:25:45.051Z,100.00
2019-06-01T02:28:17.940Z,100.00
2019-06-01T02:30:50.676Z,100.00
2019-06-01T02:33:23.589Z,100.00
2019-06-01T02:35:56.270Z,100.00
2019-06-01T02:38:28.742Z,100.00
2019-06-01T02:41:03.102Z,100.00
2019-06-01T02:43:35.667Z,100.00
2019-06-01T02:46:08.216Z,100.00
2019-06-01T02:48:40.888Z,100.00
2019-06-01T02:51:13.479Z,100.00
2019-06-01T02:53:46.252Z,100.00
2019-06-01T02:56:18.939Z,100.00
2019-06-01T02:58:51.627Z,100.00
2019-06-01T03:01:38.846Z,100.00
2019-06-01T03:04:12.925Z,100.00
2019-06-01T03:06:46.350Z,100.00
2019-06-01T03:09:22.513Z,100.00
2019-06-01T03:11:59.378Z,100.00
2019-06-01T03:14:34.412Z,100.00
2019-06-01T03:17:07.879Z,100.00
2019-06-01T03:19:44.183Z,100.00
2019-06-01T03:22:19.512Z,100.00
2019-06-01T03:24:55.071Z,100.00
2019-06-01T03:27:34.508Z,100.00
2019-06-01T03:30:15.226Z,100.00
2019-06-01T03:32:46.420Z,100.00
2019-06-01T03:35:19.090Z,100.00
2019-06-01T03:37:51.778Z,100.00
2019-06-01T03:40:24.448Z,100.00
2019-06-01T03:42:57.333Z,100.00
2019-06-01T03:45:30.197Z,100.00
2019-06-01T03:48:02.794Z,100.00
2019-06-01T03:50:35.592Z,100.00
2019-06-01T03:53:09.876Z,100.00
2019-06-01T03:55:42.880Z,100.00
2019-06-01T03:58:15.866Z,100.00
2019-06-01T04:00:48.540Z,100.00
2019-06-01T04:03:21.125Z,100.00
2019-06-01T04:05:53.900Z,100.00
2019-06-01T04:08:26.587Z,100.00
2019-06-01T04:10:59.272Z,100.00
2019-06-01T04:13:32.258Z,100.00
2019-06-01T04:16:05.836Z,100.00
2019-06-01T04:18:38.843Z,100.00
2019-06-01T04:21:12.202Z,100.00
2019-06-01T04:23:45.123Z,100.00
2019-06-01T04:26:17.936Z,100.00
2019-06-01T04:28:50.791Z,100.00
2019-06-01T04:31:23.772Z,100.00
2019-06-01T04:33:56.656Z,100.00
2019-06-01T04:36:29.841Z,100.00
2019-06-01T04:39:03.346Z,100.00
2019-06-01T04:41:36.495Z,100.00
2019-06-01T04:44:10.009Z,100.00
2019-06-01T04:46:43.024Z,100.00
2019-06-01T04:49:15.809Z,100.00
2019-06-01T04:51:48.629Z,100.00
2019-06-01T04:54:21.564Z,100.00
2019-06-01T04:56:54.659Z,100.00
2019-06-01T04:59:27.432Z,100.00
2019-06-01T05:02:00.626Z,100.00
2019-06-01T05:04:33.411Z,100.00
2019-06-01T05:07:07.205Z,100.00
2019-06-01T05:09:39.994Z,100.00
2019-06-01T05:12:13.614Z,100.00
2019-06-01T05:14:46.593Z,100.00
2019-06-01T05:17:19.680Z,99.99
2019-06-01T05:19:52.351Z,99.64
2019-06-01T05:22:25.128Z,99.26
2019-06-01T05:24:57.808Z,99.53
2019-06-01T05:27:30.704Z,98.87
2019-06-01T05:30:02.929Z,97.98
2019-06-01T05:32:36.062Z,98.29
2019-06-01T05:35:11.800Z,98.55
2019-06-01T05:37:44.893Z,98.37
2019-06-01T05:40:19.747Z,97.24
2019-06-01T05:42:52.309Z,97.29
2019-06-01T05:45:25.005Z,97.58
2019-06-01T05:47:57.666Z,96.54
2019-06-01T05:50:30.232Z,95.98
2019-06-01T05:53:03.022Z,95.60
2019-06-01T05:55:35.713Z,95.08
2019-06-01T05:58:08.382Z,95.28
2019-06-01T06:00:45.677Z,95.11
2019-06-01T06:03:22.195Z,92.75
2019-06-01T06:05:52.755Z,93.13
2019-06-01T06:08:25.439Z,91.81
2019-06-01T06:10:58.424Z,91.00
2019-06-01T06:13:31.111Z,90.16
2019-06-01T06:16:03.803Z,90.33
2019-06-01T06:18:36.096Z,86.44
2019-06-01T06:21:08.739Z,86.60
2019-06-01T06:23:41.838Z,87.11
2019-06-01T06:26:15.488Z,85.79
2019-06-01T06:28:48.715Z,84.15
2019-06-01T06:31:21.422Z,81.31
2019-06-01T06:33:56.860Z,84.64
2019-06-01T06:36:29.494Z,81.72
2019-06-01T06:39:04.715Z,82.07
2019-06-01T06:41:36.488Z,82.33
2019-06-01T06:44:09.195Z,80.89
2019-06-01T06:46:41.767Z,76.83
2019-06-01T06:49:15.040Z,77.36
2019-06-01T06:51:47.640Z,79.13
2019-06-01T06:54:20.330Z,79.28
2019-06-01T06:56:52.934Z,79.93
2019-06-01T06:59:26.622Z,80.39
2019-06-01T07:01:59.384Z,79.52
2019-06-01T07:04:32.071Z,78.13
2019-06-01T07:07:04.751Z,78.34
2019-06-01T07:09:39.569Z,76.78
2019-06-01T07:12:12.263Z,75.83
2019-06-01T07:14:44.933Z,75.32
2019-06-01T07:17:17.382Z,74.42
2019-06-01T07:19:51.192Z,74.80
2019-06-01T07:22:23.818Z,73.60
2019-06-01T07:24:56.925Z,72.90
2019-06-01T07:27:29.559Z,72.60
2019-06-01T07:30:02.250Z,72.31
2019-06-01T07:32:34.810Z,70.13
2019-06-01T07:35:08.723Z,71.26
2019-06-01T07:37:41.401Z,71.99
2019-06-01T07:40:14.211Z,70.81
2019-06-01T07:42:47.162Z,68.05
2019-06-01T07:45:20.806Z,68.07
2019-06-01T07:47:53.450Z,66.52
2019-06-01T07:50:26.122Z,66.43
2019-06-01T07:52:59.016Z,67.18
2019-06-01T07:55:33.652Z,66.88
2019-06-01T07:58:06.426Z,66.31
2019-06-01T08:00:39.071Z,66.81
2019-06-01T08:03:11.316Z,65.73
2019-06-01T08:05:44.252Z,64.38
2019-06-01T08:08:16.926Z,66.05
2019-06-01T08:10:49.603Z,65.79
2019-06-01T08:13:23.310Z,68.09
2019-06-01T08:15:56.497Z,66.60
2019-06-01T08:18:30.117Z,66.36
2019-06-01T08:21:04.214Z,65.81
2019-06-01T08:23:36.964Z,62.72
2019-06-01T08:26:10.349Z,60.59
2019-06-01T08:28:42.974Z,61.10
2019-06-01T08:31:15.644Z,61.48
2019-06-01T08:33:48.230Z,62.28
2019-06-01T08:36:20.896Z,62.39
2019-06-01T08:38:53.484Z,63.61
2019-06-01T08:41:27.640Z,61.53
2019-06-01T08:44:01.174Z,60.08
2019-06-01T08:46:34.009Z,61.05
2019-06-01T08:49:06.965Z,61.74
2019-06-01T08:51:39.563Z,61.03
2019-06-01T08:54:12.220Z,59.88
2019-06-01T08:56:44.900Z,57.46
2019-06-01T08:59:17.466Z,56.76
2019-06-01T09:01:50.170Z,57.15
2019-06-01T09:04:22.830Z,55.42
2019-06-01T09:06:55.506Z,59.03
2019-06-01T09:09:28.957Z,56.36
2019-06-01T09:12:01.799Z,54.30
2019-06-01T09:14:35.587Z,52.72
2019-06-01T09:17:08.270Z,51.87
2019-06-01T09:19:40.992Z,53.12
2019-06-01T09:22:14.445Z,52.30
2019-06-01T09:24:47.137Z,52.42
2019-06-01T09:27:19.753Z,52.24
2019-06-01T09:29:52.399Z,54.08
2019-06-01T09:32:26.089Z,49.76
2019-06-01T09:34:58.884Z,47.47
2019-06-01T09:37:32.532Z,52.37
2019-06-01T09:40:09.407Z,53.02
2019-06-01T09:42:42.146Z,52.73
2019-06-01T09:45:15.024Z,54.46
2019-06-01T09:47:47.592Z,56.68
2019-06-01T09:50:20.279Z,59.21
2019-06-01T09:52:53.161Z,58.31
2019-06-01T09:55:25.734Z,59.68
2019-06-01T09:57:58.029Z,60.44
2019-06-01T10:00:30.791Z,59.12
2019-06-01T10:03:03.878Z,59.02
2019-06-01T10:05:36.566Z,58.99
2019-06-01T10:08:09.133Z,59.05
2019-06-01T10:10:42.309Z,59.98
2019-06-01T10:13:14.632Z,60.88
2019-06-01T10:15:47.278Z,60.46
2019-06-01T10:18:19.947Z,59.78
2019-06-01T10:20:52.523Z,59.72
2019-06-01T10:23:25.218Z,59.19
2019-06-01T10:25:57.883Z,55.31
2019-06-01T10:28:31.636Z,54.91
2019-06-01T10:31:05.298Z,51.12
2019-06-01T10:33:38.936Z,52.87
2019-06-01T10:36:20.653Z,53.81
2019-06-01T10:38:47.325Z,55.96
2019-06-01T10:41:20.005Z,58.47
2019-06-01T10:43:52.651Z,59.73
2019-06-01T10:46:25.266Z,61.04
2019-06-01T10:48:57.941Z,62.39
2019-06-01T10:51:31.938Z,64.12
2019-06-01T10:54:05.243Z,63.69
2019-06-01T10:56:38.947Z,63.42
2019-06-01T10:59:11.635Z,63.34
2019-06-01T11:01:43.857Z,63.19
2019-06-01T11:04:16.580Z,62.89
2019-06-01T11:06:49.092Z,61.64
2019-06-01T11:09:21.932Z,62.27
2019-06-01T11:11:54.504Z,61.43
2019-06-01T11:14:27.292Z,59.59
2019-06-01T11:16:59.994Z,60.36
2019-06-01T11:19:33.177Z,57.13
2019-06-01T11:22:06.262Z,54.95
2019-06-01T11:24:39.516Z,52.94
2019-06-01T11:27:12.534Z,52.80
2019-06-01T11:29:51.241Z,50.54
2019-06-01T11:32:19.019Z,47.67
2019-06-01T11:34:51.695Z,47.32
2019-06-01T11:37:24.471Z,45.92
2019-06-01T11:39:57.148Z,46.15
2019-06-01T11:42:29.723Z,44.76
2019-06-01T11:45:02.416Z,43.21
2019-06-01T11:47:35.093Z,43.49
2019-06-01T11:50:08.992Z,45.44
2019-06-01T11:52:41.576Z,43.39
2019-06-01T11:55:14.769Z,42.88
2019-06-01T11:57:47.450Z,41.48
2019-06-01T12:00:20.838Z,40.21
2019-06-01T12:02:53.411Z,39.19
2019-06-01T12:05:26.094Z,41.03
2019-06-01T12:07:59.382Z,40.47
2019-06-01T12:10:32.079Z,41.66
2019-06-01T12:13:04.647Z,41.69
2019-06-01T12:15:38.406Z,41.52
2019-06-01T12:18:11.331Z,39.32
2019-06-01T12:20:44.885Z,40.02
2019-06-01T12:23:17.821Z,38.93
2019-06-01T12:25:50.500Z,38.22
2019-06-01T12:28:23.070Z,38.26
2019-06-01T12:30:55.758Z,38.42
2019-06-01T12:33:28.438Z,37.39
2019-06-01T12:36:00.733Z,35.57
2019-06-01T12:38:34.924Z,36.13
2019-06-01T12:41:07.591Z,35.86
2019-06-01T12:43:41.227Z,36.89
2019-06-01T12:46:14.188Z,38.79
2019-06-01T12:48:46.866Z,37.07
2019-06-01T12:51:19.545Z,37.79
2019-06-01T12:53:52.780Z,36.39
2019-06-01T12:56:25.624Z,34.62
2019-06-01T12:58:57.854Z,35.57
2019-06-01T13:01:30.769Z,35.59
2019-06-01T13:04:03.455Z,36.63
2019-06-01T13:06:36.134Z,35.31
2019-06-01T13:09:10.163Z,37.34
2019-06-01T13:11:43.196Z,35.11
2019-06-01T13:14:16.007Z,34.43
2019-06-01T13:17:03.024Z,35.22
2019-06-01T13:19:23.011Z,34.41
2019-06-01T13:21:55.682Z,34.74
2019-06-01T13:24:28.371Z,34.23
2019-06-01T13:27:01.094Z,32.41
2019-06-01T13:29:33.721Z,34.27
2019-06-01T13:32:06.715Z,31.79
2019-06-01T13:34:39.397Z,32.92
2019-06-01T13:37:11.682Z,32.45
2019-06-01T13:39:45.452Z,31.37
2019-06-01T13:42:18.552Z,33.65
2019-06-01T13:44:51.606Z,33.06
2019-06-01T13:47:24.738Z,32.91
2019-06-01T13:49:57.295Z,32.39
2019-06-01T13:52:29.983Z,31.57
2019-06-01T13:55:02.576Z,32.49
2019-06-01T13:57:38.580Z,31.07
2019-06-01T14:00:15.562Z,30.00
2019-06-01T14:02:49.606Z,29.70
2019-06-01T14:05:20.852Z,32.69
2019-06-01T14:07:55.700Z,32.01
2019-06-01T14:10:28.467Z,30.38
2019-06-01T14:13:05.333Z,29.46
2019-06-01T14:15:37.318Z,29.03
2019-06-01T14:18:09.987Z,28.81
2019-06-01T14:20:42.775Z,28.17
2019-06-01T14:23:15.052Z,28.64
2019-06-01T14:25:47.987Z,31.03
2019-06-01T14:28:20.803Z,32.06
2019-06-01T14:30:54.364Z,33.58
2019-06-01T14:33:27.303Z,32.30
2019-06-01T14:35:59.861Z,31.86
2019-06-01T14:38:46.064Z,31.69
2019-06-01T14:41:06.662Z,32.03
2019-06-01T14:43:38.940Z,31.81
2019-06-01T14:46:11.615Z,33.58
2019-06-01T14:48:44.563Z,35.28
2019-06-01T14:51:17.172Z,31.01
2019-06-01T14:53:49.852Z,29.97
2019-06-01T14:56:22.464Z,28.23
2019-06-01T14:58:56.000Z,28.13
2019-06-01T15:01:32.326Z,27.13
2019-06-01T15:04:02.731Z,26.70
2019-06-01T15:06:35.358Z,25.90
2019-06-01T15:09:18.607Z,25.01
2019-06-01T15:11:43.928Z,26.58
2019-06-01T15:14:16.207Z,26.19
2019-06-01T15:16:49.540Z,25.47
2019-06-01T15:19:22.203Z,25.66
2019-06-01T15:21:56.115Z,24.89
2019-06-01T15:24:29.271Z,26.32
2019-06-01T15:27:03.040Z,24.36
2019-06-01T15:29:35.643Z,25.23
2019-06-01T15:32:09.573Z,28.58
2019-06-01T15:34:42.548Z,29.58
2019-06-01T15:37:14.771Z,27.51
2019-06-01T15:39:47.499Z,26.58
2019-06-01T15:42:21.118Z,25.57
2019-06-01T15:44:55.008Z,24.46
2019-06-01T15:47:27.893Z,23.96
2019-06-01T15:50:00.573Z,23.47
2019-06-01T15:52:33.161Z,24.24
2019-06-01T15:55:08.189Z,24.45
2019-06-01T15:57:41.488Z,24.82
2019-06-01T16:00:16.013Z,24.18
2019-06-01T16:02:49.291Z,26.17
2019-06-01T16:05:22.011Z,26.01
2019-06-01T16:07:55.093Z,25.04
2019-06-01T16:10:27.950Z,25.27
2019-06-01T16:13:01.537Z,24.81
2019-06-01T16:15:34.427Z,25.58
2019-06-01T16:18:07.019Z,25.22
2019-06-01T16:20:39.700Z,24.22
2019-06-01T16:23:12.436Z,23.28
2019-06-01T16:25:52.315Z,23.96
2019-06-01T16:28:19.477Z,24.18
2019-06-01T16:30:52.346Z,25.03
2019-06-01T16:33:24.923Z,24.08
2019-06-01T16:35:58.746Z,24.81
2019-06-01T16:38:31.512Z,25.07
2019-06-01T16:41:05.209Z,26.22
2019-06-01T16:43:38.201Z,25.27
2019-06-01T16:46:11.912Z,25.47
2019-06-01T16:48:44.481Z,25.36
2019-06-01T16:51:16.771Z,24.42
2019-06-01T16:53:49.440Z,24.16
2019-06-01T16:56:22.110Z,26.72
2019-06-01T16:58:55.943Z,29.86
2019-06-01T17:01:28.413Z,29.64
2019-06-01T17:04:01.067Z,27.49
2019-06-01T17:06:33.553Z,26.30
2019-06-01T17:09:09.014Z,25.99
2019-06-01T17:11:41.775Z,26.35
2019-06-01T17:14:14.461Z,25.44
2019-06-01T17:16:47.136Z,25.14
2019-06-01T17:19:19.354Z,26.32
2019-06-01T17:21:51.641Z,26.19
2019-06-01T17:24:24.251Z,28.15
2019-06-01T17:26:57.757Z,28.59
2019-06-01T17:29:30.634Z,28.22
2019-06-01T17:32:16.732Z,28.42
2019-06-01T17:34:37.533Z,31.27
2019-06-01T17:37:10.617Z,32.45
2019-06-01T17:39:43.401Z,32.22
2019-06-01T17:42:16.076Z,32.22
2019-06-01T17:44:48.774Z,34.78
2019-06-01T17:47:21.427Z,36.31
2019-06-01T17:49:54.121Z,37.29
2019-06-01T17:52:26.793Z,37.97
2019-06-01T17:55:00.714Z,37.44
2019-06-01T17:57:33.889Z,37.74
2019-06-01T18:00:11.746Z,39.25
2019-06-01T18:02:45.294Z,39.05
2019-06-01T18:05:17.727Z,41.97
2019-06-01T18:07:50.448Z,41.37
2019-06-01T18:10:24.550Z,43.91
2019-06-01T18:12:57.232Z,47.23
2019-06-01T18:15:29.814Z,48.07
2019-06-01T18:18:02.490Z,49.71
2019-06-01T18:20:36.704Z,50.40
2019-06-01T18:23:10.159Z,53.65
2019-06-01T18:25:43.244Z,53.65
2019-06-01T18:28:19.505Z,55.41
2019-06-01T18:30:51.927Z,56.82
2019-06-01T18:33:24.708Z,58.13
2019-06-01T18:35:57.292Z,58.49
2019-06-01T18:38:29.970Z,58.44
2019-06-01T18:41:11.617Z,60.31
2019-06-01T18:43:36.458Z,60.80
2019-06-01T18:46:10.119Z,61.75
2019-06-01T18:48:43.216Z,62.62
2019-06-01T18:51:15.832Z,63.80
2019-06-01T18:53:48.079Z,64.03
2019-06-01T18:56:20.673Z,64.13
2019-06-01T18:58:53.347Z,65.62
2019-06-01T19:01:26.123Z,67.40
2019-06-01T19:03:58.910Z,68.82
2019-06-01T19:06:31.507Z,69.89
2019-06-01T19:09:05.713Z,70.12
2019-06-01T19:11:38.397Z,70.92
2019-06-01T19:14:11.921Z,70.35
2019-06-01T19:16:44.679Z,71.07
2019-06-01T19:19:17.338Z,72.88
2019-06-01T19:21:50.014Z,72.47
2019-06-01T19:24:22.700Z,72.40
2019-06-01T19:26:55.331Z,72.11
2019-06-01T19:29:27.973Z,73.19
2019-06-01T19:32:00.632Z,72.81
2019-06-01T19:34:32.941Z,72.41
2019-06-01T19:37:06.941Z,73.67
2019-06-01T19:39:40.932Z,73.69
2019-06-01T19:42:13.705Z,74.41
2019-06-01T19:44:46.351Z,74.79
2019-06-01T19:47:19.241Z,74.24
2019-06-01T19:49:51.508Z,74.05
2019-06-01T19:52:24.119Z,74.52
2019-06-01T19:54:56.857Z,75.10
2019-06-01T19:57:29.473Z,76.26
2019-06-01T20:00:02.163Z,76.61
2019-06-01T20:02:35.869Z,76.63
2019-06-01T20:05:08.852Z,77.32
2019-06-01T20:07:41.527Z,77.73
2019-06-01T20:10:14.450Z,78.03
2019-06-01T20:12:47.095Z,78.28
2019-06-01T20:15:19.782Z,78.58
2019-06-01T20:17:52.021Z,79.20
2019-06-01T20:20:24.726Z,79.28
2019-06-01T20:22:57.564Z,79.65
2019-06-01T20:25:29.872Z,80.10
2019-06-01T20:28:02.563Z,80.15
2019-06-01T20:30:35.230Z,80.00
2019-06-01T20:33:07.812Z,79.86
2019-06-01T20:35:40.086Z,79.63
2019-06-01T20:38:14.246Z,80.21
2019-06-01T20:40:47.074Z,80.22
2019-06-01T20:43:20.809Z,80.62
2019-06-01T20:45:56.749Z,80.39
2019-06-01T20:48:28.401Z,81.06
2019-06-01T20:51:01.086Z,81.91
2019-06-01T20:53:33.659Z,83.26
2019-06-01T20:56:06.330Z,83.53
2019-06-01T20:58:39.020Z,83.44
2019-06-01T21:01:11.686Z,83.57
2019-06-01T21:03:44.356Z,84.13
2019-06-01T21:06:18.517Z,84.82
2019-06-01T21:08:51.562Z,85.51
2019-06-01T21:11:24.478Z,86.61
2019-06-01T21:13:56.768Z,87.42
2019-06-01T21:16:29.498Z,88.09
2019-06-01T21:19:02.381Z,88.55
2019-06-01T21:21:35.164Z,88.85
2019-06-01T21:24:07.412Z,89.28
2019-06-01T21:26:40.113Z,89.38
2019-06-01T21:29:12.798Z,89.65
2019-06-01T21:31:45.473Z,89.82
2019-06-01T21:34:21.889Z,89.70
2019-06-01T21:36:53.494Z,89.64
2019-06-01T21:39:25.721Z,89.68
2019-06-01T21:41:58.437Z,90.47
2019-06-01T21:44:31.228Z,91.16
2019-06-01T21:47:04.064Z,91.25
2019-06-01T21:49:36.307Z,91.45
2019-06-01T21:52:08.595Z,91.81
2019-06-01T21:54:41.427Z,91.77
2019-06-01T21:57:14.107Z,91.91
2019-06-01T21:59:47.202Z,91.70
2019-06-01T22:02:20.949Z,91.95
2019-06-01T22:04:54.592Z,92.58
2019-06-01T22:07:27.895Z,92.78
2019-06-01T22:10:00.879Z,93.75
2019-06-01T22:12:33.561Z,93.39
2019-06-01T22:15:08.356Z,93.50
2019-06-01T22:17:40.898Z,94.26
2019-06-01T22:20:13.933Z,94.65
2019-06-01T22:22:46.748Z,95.06
2019-06-01T22:25:20.634Z,95.02
2019-06-01T22:27:53.940Z,94.98
2019-06-01T22:30:26.621Z,95.14
2019-06-01T22:32:59.863Z,95.51
2019-06-01T22:35:32.795Z,95.04
2019-06-01T22:38:06.500Z,95.03
2019-06-01T22:40:39.170Z,95.51
2019-06-01T22:43:12.363Z,96.03
2019-06-01T22:45:45.252Z,96.78
2019-06-01T22:48:20.504Z,96.42
2019-06-01T22:50:53.275Z,96.72
2019-06-01T22:53:26.776Z,96.46
2019-06-01T22:56:00.419Z,96.74
2019-06-01T22:58:33.146Z,96.72
2019-06-01T23:01:06.458Z,96.82
2019-06-01T23:03:39.274Z,97.31
2019-06-01T23:06:12.116Z,97.88
2019-06-01T23:08:45.553Z,97.90
2019-06-01T23:11:18.598Z,98.43
2019-06-01T23:13:53.644Z,98.22
2019-06-01T23:16:26.099Z,98.30
2019-06-01T23:18:59.599Z,98.79
2019-06-01T23:21:32.385Z,99.54
2019-06-01T23:24:05.684Z,99.66
2019-06-01T23:26:38.762Z,99.14
2019-06-01T23:29:12.265Z,99.55
2019-06-01T23:31:44.795Z,99.06
2019-06-01T23:34:17.629Z,98.77
2019-06-01T23:36:50.076Z,98.48
2019-06-01T23:42:12.252Z,98.92
2019-06-01T23:44:44.780Z,99.63
2019-06-01T23:47:17.039Z,99.94
2019-06-01T23:49:49.596Z,100.00
2019-06-01T23:52:23.471Z,100.00
2019-06-01T23:54:56.480Z,100.00
2019-06-01T23:57:30.054Z,100.00
